Time;durP1;ratioP1;P1;durP2;ratioP2;P2;SDS_P1;SDS_P2;PMS_P1;PMS_P2;Temp;Humidity;BMP_temperature;BMP_pressure;BME280_temperature;BME280_humidity;BME280_pressure;Samples;Min_cycle;Max_cycle;Signal;HPM_P1;HPM_P2
2022/01/21 10:12:38;;;;;;;16.00;14.60;;;4.40;99.90;;;;;;5190383;27;20305;-72
2022/01/21 10:15:06;;;;;;;16.30;14.80;;;6.40;99.90;;;;;;5169334;27;20536;-72
2022/01/21 10:17:33;;;;;;;16.17;15.07;;;6.20;99.90;;;;;;5169241;27;20489;-72
2022/01/21 10:20:13;;;;;;;16.50;14.97;;;6.10;99.90;;;;;;5169117;27;20898;-71
2022/01/21 10:22:55;;;;;;;16.53;15.30;;;5.90;99.90;;;;;;5169275;27;20443;-72
2022/01/21 10:25:22;;;;;;;16.90;15.47;;;6.10;99.90;;;;;;5169541;27;20438;-72
2022/01/21 10:27:50;;;;;;;16.23;15.10;;;5.90;99.90;;;;;;5168972;27;20445;-72
2022/01/21 10:30:21;;;;;;;17.67;14.43;;;5.60;99.90;;;;;;5168979;27;20487;-72
2022/01/21 10:32:48;;;;;;;15.77;14.20;;;5.50;99.90;;;;;;5169002;27;20512;-71
2022/01/21 10:35:23;;;;;;;16.33;14.57;;;5.40;99.90;;;;;;5168826;27;20979;-71
2022/01/21 10:37:50;;;;;;;18.97;14.60;;;5.40;99.90;;;;;;5168880;27;20453;-72
2022/01/21 10:40:21;;;;;;;15.53;13.83;;;5.30;99.90;;;;;;5168641;27;20446;-72
2022/01/21 10:42:48;;;;;;;15.83;14.53;;;5.30;99.90;;;;;;5168752;27;20466;-73
2022/01/21 10:45:16;;;;;;;18.87;16.70;;;5.20;99.90;;;;;;5168681;27;20448;-73
2022/01/21 10:47:49;;;;;;;19.83;14.50;;;5.00;99.90;;;;;;5168444;27;20447;-72
2022/01/21 10:50:19;;;;;;;15.07;13.77;;;4.90;99.90;;;;;;5168518;27;20740;-73
2022/01/21 10:52:51;;;;;;;14.47;13.43;;;5.00;99.90;;;;;;5168461;27;20720;-74
2022/01/21 10:55:29;;;;;;;15.73;14.43;;;5.10;99.90;;;;;;5168444;27;20967;-73
2022/01/21 10:58:07;;;;;;;13.77;12.70;;;5.20;99.90;;;;;;5168459;27;20445;-73
2022/01/21 11:00:36;;;;;;;13.67;12.57;;;5.60;99.90;;;;;;5168426;27;20447;-73
2022/01/21 11:03:13;;;;;;;15.00;13.73;;;5.80;99.90;;;;;;5168368;27;20467;-73
2022/01/21 11:05:44;;;;;;;14.53;13.20;;;6.00;99.90;;;;;;5168251;27;20442;-73
2022/01/21 11:08:12;;;;;;;13.27;12.40;;;6.00;99.90;;;;;;5168201;27;20450;-73
2022/01/21 11:10:49;;;;;;;12.90;12.10;;;5.90;99.90;;;;;;5168110;27;20543;-73
2022/01/21 11:13:34;;;;;;;13.10;12.03;;;5.90;99.90;;;;;;5155601;27;20446;-73
2022/01/21 11:16:07;;;;;;;13.37;12.47;;;5.90;99.90;;;;;;5154084;27;20451;-73
2022/01/21 11:18:48;;;;;;;13.80;12.70;;;5.80;99.90;;;;;;5154055;27;20466;-73
2022/01/21 11:21:14;;;;;;;14.00;13.10;;;6.00;99.90;;;;;;5154115;27;21206;-73
2022/01/21 11:23:41;;;;;;;14.33;13.10;;;6.10;99.90;;;;;;5154136;27;20446;-73
2022/01/21 11:26:09;;;;;;;14.13;12.83;;;6.00;99.90;;;;;;5154293;27;20454;-73
2022/01/21 11:28:42;;;;;;;14.20;13.10;;;6.00;99.90;;;;;;5154281;27;20534;-73
2022/01/21 11:31:10;;;;;;;14.93;13.83;;;5.70;99.90;;;;;;5154288;27;20566;-73
2022/01/21 11:33:37;;;;;;;13.40;12.20;;;5.70;99.90;;;;;;5154247;27;20862;-73
2022/01/21 11:36:05;;;;;;;12.73;11.83;;;5.70;99.90;;;;;;5154220;27;20440;-74
2022/01/21 11:38:36;;;;;;;22.93;13.10;;;5.80;99.90;;;;;;5153793;27;20485;-73
2022/01/21 11:41:04;;;;;;;13.33;12.43;;;5.80;99.90;;;;;;5153723;27;20541;-74
2022/01/21 11:43:33;;;;;;;12.77;11.50;;;5.80;99.90;;;;;;5153748;27;20503;-74
2022/01/21 11:46:19;;;;;;;12.83;11.73;;;5.90;99.90;;;;;;5153550;27;20802;-74
2022/01/21 11:48:53;;;;;;;13.57;12.33;;;5.80;99.90;;;;;;5153573;27;20452;-74
2022/01/21 11:51:27;;;;;;;14.50;13.20;;;5.90;99.90;;;;;;5153546;27;20479;-74
2022/01/21 11:53:56;;;;;;;13.37;12.00;;;6.10;99.90;;;;;;5153722;27;20938;-74
2022/01/21 11:56:43;;;;;;;12.77;11.93;;;5.90;99.90;;;;;;5153678;27;20459;-73
2022/01/21 11:59:31;;;;;;;12.70;11.53;;;5.80;99.90;;;;;;5153477;27;20483;-73
2022/01/21 12:01:58;;;;;;;13.73;12.00;;;5.80;99.90;;;;;;5153100;27;20522;-73
2022/01/21 12:04:44;;;;;;;13.87;12.50;;;6.00;99.90;;;;;;5153410;27;20536;-73
2022/01/21 12:07:48;;;;;;;12.90;11.40;;;5.90;99.90;;;;;;5153128;27;20456;-73
2022/01/21 12:10:18;;;;;;;15.43;13.50;;;5.70;99.90;;;;;;5152989;27;20657;-73
2022/01/21 12:13:05;;;;;;;13.53;12.60;;;5.60;99.90;;;;;;5153226;27;20767;-73
2022/01/21 12:21:46;;;;;;;13.93;12.53;;;5.50;99.90;;;;;;5149965;27;20426;-74
2022/01/21 12:24:13;;;;;;;12.30;11.03;;;5.50;99.90;;;;;;5151901;27;20543;-74
2022/01/21 12:26:56;;;;;;;10.77;10.07;;;5.50;99.90;;;;;;5152953;27;20574;-73
2022/01/21 12:29:27;;;;;;;13.73;11.33;;;5.60;99.90;;;;;;5153172;27;20441;-74
2022/01/21 12:32:03;;;;;;;11.43;10.73;;;5.60;99.90;;;;;;5153011;27;20572;-74
2022/01/21 12:35:07;;;;;;;12.80;11.70;;;5.50;99.90;;;;;;5152478;27;20447;-74
2022/01/21 12:37:52;;;;;;;12.37;11.60;;;5.30;99.90;;;;;;5152830;27;20456;-74
2022/01/21 12:40:33;;;;;;;12.30;11.30;;;5.30;99.90;;;;;;5152596;27;20546;-74
2022/01/21 12:43:00;;;;;;;11.80;10.90;;;5.40;99.90;;;;;;5152661;27;20788;-73
2022/01/21 12:45:27;;;;;;;11.07;9.87;;;5.40;99.90;;;;;;5152515;27;20449;-73
2022/01/21 12:47:55;;;;;;;15.53;13.40;;;5.40;99.90;;;;;;5152525;27;20508;-73
2022/01/21 12:50:30;;;;;;;11.60;10.70;;;5.40;99.90;;;;;;5152562;27;20545;-73
2022/01/21 12:53:16;;;;;;;12.50;11.70;;;5.40;99.90;;;;;;5152279;27;20440;-73
2022/01/21 12:55:59;;;;;;;12.03;11.10;;;5.20;99.90;;;;;;5152233;27;20492;-73
2022/01/21 12:58:28;;;;;;;11.83;10.73;;;5.10;99.90;;;;;;5152186;27;20450;-73
2022/01/21 13:00:58;;;;;;;11.10;10.40;;;5.20;99.90;;;;;;5152021;27;20444;-73
2022/01/21 13:03:30;;;;;;;11.47;10.57;;;5.30;99.90;;;;;;5152072;27;20510;-74
2022/01/21 13:06:04;;;;;;;11.97;10.90;;;5.10;99.90;;;;;;5152087;27;20443;-73
2022/01/21 13:08:44;;;;;;;17.63;11.70;;;5.10;99.90;;;;;;5151980;27;20708;-74
2022/01/21 13:11:12;;;;;;;12.83;11.93;;;5.20;99.90;;;;;;5151843;27;20494;-73
2022/01/21 13:13:49;;;;;;;11.97;10.93;;;5.30;99.90;;;;;;5151964;27;20453;-73
2022/01/21 13:16:25;;;;;;;11.90;10.60;;;5.50;99.90;;;;;;5151966;27;20520;-73
2022/01/21 13:19:00;;;;;;;11.43;10.27;;;5.50;99.90;;;;;;5151970;27;20529;-74
2022/01/21 13:21:26;;;;;;;11.57;10.37;;;5.40;99.90;;;;;;5151682;27;20472;-73
2022/01/21 13:23:57;;;;;;;11.40;10.20;;;5.40;99.90;;;;;;5152024;27;20447;-72
2022/01/21 13:26:26;;;;;;;10.77;9.80;;;5.50;99.90;;;;;;5152005;27;20457;-74
2022/01/21 13:28:56;;;;;;;12.33;11.10;;;5.40;99.90;;;;;;5152009;27;20870;-74
2022/01/21 13:31:23;;;;;;;12.70;10.73;;;5.20;99.90;;;;;;5151836;27;20519;-74
2022/01/21 13:33:50;;;;;;;12.53;11.33;;;5.30;99.90;;;;;;5151431;27;20447;-73
2022/01/21 13:36:42;;;;;;;12.60;10.80;;;5.40;99.90;;;;;;5151043;27;20447;-74
2022/01/21 13:39:13;;;;;;;11.70;10.90;;;5.30;99.90;;;;;;5151538;27;20942;-74
2022/01/21 13:41:52;;;;;;;13.47;12.20;;;5.30;99.90;;;;;;5151410;27;20442;-74
2022/01/21 13:44:31;;;;;;;12.67;11.37;;;5.30;99.90;;;;;;5151441;27;20535;-74
2022/01/21 13:46:59;;;;;;;12.67;11.57;;;5.20;99.90;;;;;;5151475;27;20439;-74
2022/01/21 13:49:27;;;;;;;11.83;10.37;;;5.10;99.90;;;;;;5151240;27;20449;-74
2022/01/21 13:51:58;;;;;;;12.77;11.60;;;5.00;99.90;;;;;;5151461;27;20487;-74
2022/01/21 13:54:31;;;;;;;11.33;10.73;;;5.00;99.90;;;;;;5151429;27;20451;-73
2022/01/21 13:56:58;;;;;;;12.13;11.20;;;5.00;99.90;;;;;;5151220;27;20459;-74
2022/01/21 13:59:25;;;;;;;13.57;12.60;;;5.00;99.90;;;;;;5151137;27;20455;-74
2022/01/21 14:02:05;;;;;;;12.77;11.13;;;5.10;99.90;;;;;;5151329;27;20914;-74
2022/01/21 14:04:32;;;;;;;12.23;11.47;;;5.20;99.90;;;;;;5151080;27;20449;-74
2022/01/21 14:06:58;;;;;;;11.70;10.80;;;5.20;99.90;;;;;;5151053;27;20542;-74
2022/01/21 14:09:25;;;;;;;11.50;10.70;;;5.20;99.90;;;;;;5151284;27;20443;-73
2022/01/21 14:11:53;;;;;;;11.07;10.13;;;5.30;99.90;;;;;;5151295;27;20888;-73
2022/01/21 14:14:23;;;;;;;12.83;11.57;;;5.40;99.90;;;;;;5151120;27;20962;-73
2022/01/21 14:16:55;;;;;;;17.07;12.10;;;5.30;99.90;;;;;;5151049;27;20448;-73
2022/01/21 14:19:23;;;;;;;12.33;10.60;;;5.20;99.90;;;;;;5151321;27;20451;-73
2022/01/21 14:22:00;;;;;;;10.83;10.10;;;5.20;99.90;;;;;;5151080;27;20988;-73
2022/01/21 14:24:27;;;;;;;13.63;10.80;;;5.20;99.90;;;;;;5151212;27;20450;-73
2022/01/21 14:26:57;;;;;;;11.57;10.40;;;5.30;99.90;;;;;;5151668;27;20444;-73
2022/01/21 14:29:30;;;;;;;13.13;11.93;;;5.40;99.90;;;;;;5151328;27;20854;-74
2022/01/21 14:32:00;;;;;;;13.17;11.23;;;5.50;99.90;;;;;;5150714;27;20485;-74
2022/01/21 14:34:28;;;;;;;10.80;10.20;;;5.50;99.90;;;;;;5150915;27;20491;-73
2022/01/21 14:37:00;;;;;;;10.87;10.27;;;5.40;99.90;;;;;;5150789;27;20443;-73
2022/01/21 14:39:27;;;;;;;14.13;12.70;;;5.40;99.90;;;;;;5150718;27;20871;-75
2022/01/21 14:41:57;;;;;;;11.17;10.57;;;5.50;99.90;;;;;;5150855;27;20436;-75
2022/01/21 14:44:35;;;;;;;12.97;11.33;;;5.50;99.90;;;;;;5151065;27;20533;-75
2022/01/21 14:47:10;;;;;;;12.30;11.50;;;5.50;99.90;;;;;;5151388;27;20446;-75
2022/01/21 14:49:38;;;;;;;12.00;11.27;;;5.50;99.90;;;;;;5155114;27;20496;-74
2022/01/21 14:52:33;;;;;;;11.43;10.83;;;5.50;99.90;;;;;;5154725;27;20491;-73
2022/01/21 14:54:55;;;;;;;11.73;11.03;;;5.50;99.90;;;;;;5154739;27;20775;-74
2022/01/21 14:57:29;;;;;;;12.50;11.63;;;5.30;99.90;;;;;;5154882;27;20439;-73
2022/01/21 14:59:59;;;;;;;10.73;9.70;;;5.10;99.90;;;;;;5154613;27;20454;-74
2022/01/21 15:02:28;;;;;;;11.50;10.77;;;5.10;99.90;;;;;;5154624;27;20471;-74
2022/01/21 15:04:57;;;;;;;11.97;11.23;;;5.10;99.90;;;;;;5154647;27;20446;-73
2022/01/21 15:07:27;;;;;;;11.97;11.27;;;5.10;99.90;;;;;;5154774;27;20454;-74
2022/01/21 15:09:56;;;;;;;10.80;10.00;;;5.20;99.90;;;;;;5154418;27;20443;-74
2022/01/21 15:15:32;;;;;;;11.70;10.77;;;5.10;99.90;;;;;;5154258;27;20962;-75
2022/01/21 15:17:59;;;;;;;11.40;10.40;;;5.00;99.90;;;;;;5154102;27;20844;-74
2022/01/21 15:20:35;;;;;;;10.53;9.50;;;5.10;99.90;;;;;;5153967;27;20554;-75
2022/01/21 15:23:04;;;;;;;10.10;9.70;;;5.10;99.90;;;;;;5154248;27;20495;-74
2022/01/21 15:25:31;;;;;;;10.13;9.40;;;5.00;99.90;;;;;;5153980;27;20989;-75
2022/01/21 15:28:00;;;;;;;10.93;9.83;;;4.80;99.90;;;;;;5153816;27;20448;-75
2022/01/21 15:30:28;;;;;;;10.70;10.20;;;4.90;99.90;;;;;;5154026;27;20447;-75
2022/01/21 15:32:56;;;;;;;12.33;9.77;;;4.90;99.90;;;;;;5153909;27;20494;-74
2022/01/21 15:35:24;;;;;;;10.90;10.20;;;4.80;99.90;;;;;;5154229;27;20934;-75
2022/01/21 15:37:51;;;;;;;10.80;9.90;;;4.90;99.90;;;;;;5153969;27;20435;-74
2022/01/21 15:40:19;;;;;;;10.20;9.40;;;4.80;99.90;;;;;;5153555;27;20929;-75
2022/01/21 15:42:47;;;;;;;9.77;9.00;;;4.90;99.90;;;;;;5153640;27;20450;-75
2022/01/21 15:45:18;;;;;;;11.33;10.43;;;4.80;99.90;;;;;;5153610;27;20536;-75
2022/01/21 15:47:45;;;;;;;11.43;10.13;;;4.90;99.90;;;;;;5153452;27;20454;-74
2022/01/21 15:50:13;;;;;;;11.37;10.37;;;4.90;99.90;;;;;;5153589;27;20535;-75
2022/01/21 15:52:43;;;;;;;9.70;9.00;;;4.80;99.90;;;;;;5153525;27;20524;-74
2022/01/21 15:55:10;;;;;;;11.33;10.33;;;4.70;99.90;;;;;;5153691;27;20942;-74
2022/01/21 15:57:38;;;;;;;10.70;10.00;;;4.70;99.90;;;;;;5153654;27;20447;-74
2022/01/21 16:00:11;;;;;;;10.40;9.70;;;4.60;99.90;;;;;;5153434;27;20448;-74
2022/01/21 16:02:39;;;;;;;10.03;9.23;;;4.70;99.90;;;;;;5153551;27;20499;-75
2022/01/21 16:05:06;;;;;;;9.97;9.47;;;4.70;99.90;;;;;;5153507;27;20451;-74
2022/01/21 16:07:35;;;;;;;9.47;8.77;;;4.70;99.90;;;;;;5153183;27;20813;-75
2022/01/21 16:10:03;;;;;;;9.50;9.00;;;4.70;99.90;;;;;;5152972;27;20492;-75
2022/01/21 16:12:32;;;;;;;9.40;9.00;;;4.70;99.90;;;;;;5152772;27;21257;-74
2022/01/21 16:15:01;;;;;;;9.93;9.37;;;4.70;99.90;;;;;;5153265;27;20452;-75
2022/01/21 16:17:27;;;;;;;9.83;9.37;;;4.70;99.90;;;;;;5152862;27;20500;-74
2022/01/21 16:19:55;;;;;;;9.20;8.43;;;4.70;99.90;;;;;;5153337;27;20443;-74
2022/01/21 16:22:22;;;;;;;10.00;9.23;;;4.60;99.90;;;;;;5153171;27;20441;-74
2022/01/21 16:24:49;;;;;;;10.83;9.83;;;4.60;99.90;;;;;;5153100;27;20884;-74
2022/01/21 16:27:15;;;;;;;19.70;11.83;;;4.60;99.90;;;;;;5152797;27;20452;-74
2022/01/21 16:29:45;;;;;;;11.00;10.17;;;4.50;99.90;;;;;;5152811;27;20451;-75
2022/01/21 16:32:12;;;;;;;11.27;10.60;;;4.60;99.90;;;;;;5152361;27;20841;-75
2022/01/21 16:34:39;;;;;;;9.50;9.10;;;4.60;99.90;;;;;;5152890;27;20452;-73
2022/01/21 16:37:08;;;;;;;10.60;9.60;;;4.50;99.90;;;;;;5152969;27;20435;-73
2022/01/21 16:39:35;;;;;;;11.17;10.07;;;4.60;99.90;;;;;;5152661;27;20882;-74
2022/01/21 16:42:04;;;;;;;8.10;7.60;;;4.60;99.90;;;;;;5152678;27;20828;-73
2022/01/21 16:44:31;;;;;;;10.83;9.77;;;4.70;99.90;;;;;;5152713;27;20440;-74
2022/01/21 16:47:00;;;;;;;9.60;9.00;;;4.60;99.90;;;;;;5152476;27;20504;-73
2022/01/21 16:49:33;;;;;;;9.43;8.37;;;4.60;99.90;;;;;;5152367;27;20451;-75
2022/01/21 16:52:00;;;;;;;10.77;9.67;;;4.60;99.90;;;;;;5152172;27;20506;-75
2022/01/21 16:54:29;;;;;;;9.00;8.30;;;4.70;99.90;;;;;;5152220;27;20451;-75
2022/01/21 16:56:56;;;;;;;10.63;10.00;;;4.70;99.90;;;;;;5152379;27;20505;-75
2022/01/21 16:59:24;;;;;;;11.00;10.20;;;4.70;99.90;;;;;;5152507;27;21070;-75
2022/01/21 17:01:52;;;;;;;11.40;10.80;;;4.70;99.90;;;;;;5152169;27;20793;-75
2022/01/21 17:04:19;;;;;;;10.23;9.30;;;4.70;99.90;;;;;;5152046;27;20445;-75
2022/01/21 17:06:45;;;;;;;10.73;9.97;;;4.70;99.90;;;;;;5151865;27;20495;-75
2022/01/21 17:09:12;;;;;;;11.70;10.70;;;4.70;99.90;;;;;;5151989;27;20838;-75
2022/01/21 17:11:41;;;;;;;9.70;9.07;;;4.60;99.90;;;;;;5151576;27;20479;-75
2022/01/21 17:14:08;;;;;;;9.93;9.07;;;4.50;99.90;;;;;;5151942;27;20818;-75
2022/01/21 17:16:38;;;;;;;8.83;8.33;;;4.60;99.90;;;;;;5151791;27;20449;-75
2022/01/21 17:19:10;;;;;;;10.77;9.67;;;4.60;99.90;;;;;;5151952;27;20448;-75
2022/01/21 17:21:37;;;;;;;9.70;9.10;;;4.50;99.90;;;;;;5152084;27;20451;-75
2022/01/21 17:24:05;;;;;;;10.33;9.73;;;4.50;99.90;;;;;;5151865;27;20443;-75
2022/01/21 17:26:32;;;;;;;9.97;9.27;;;4.50;99.90;;;;;;5151796;27;20500;-75
2022/01/21 17:29:00;;;;;;;9.53;8.83;;;4.50;99.90;;;;;;5151905;27;21181;-75
2022/01/21 17:31:26;;;;;;;9.40;8.70;;;4.60;99.90;;;;;;5151642;27;20866;-75
2022/01/21 17:33:53;;;;;;;9.23;8.63;;;4.60;99.90;;;;;;5151876;27;20483;-74
2022/01/21 17:36:20;;;;;;;11.30;10.70;;;4.50;99.90;;;;;;5151883;27;20462;-75
2022/01/21 17:38:54;;;;;;;9.30;8.90;;;4.60;99.90;;;;;;5151544;27;20942;-74
2022/01/21 17:41:21;;;;;;;9.53;8.70;;;4.60;99.90;;;;;;5151881;27;20473;-74
2022/01/21 17:43:50;;;;;;;9.77;9.20;;;4.50;99.90;;;;;;5151477;27;20436;-74
2022/01/21 17:46:21;;;;;;;9.50;9.00;;;4.60;99.90;;;;;;5151504;27;20454;-74
2022/01/21 17:48:50;;;;;;;9.87;9.27;;;4.60;99.90;;;;;;5151505;27;20443;-73
2022/01/21 17:51:17;;;;;;;9.07;8.00;;;4.50;99.90;;;;;;5151369;27;20502;-73
2022/01/21 17:53:45;;;;;;;10.03;8.83;;;4.40;99.90;;;;;;5151241;27;20554;-73
2022/01/21 17:56:16;;;;;;;9.40;8.70;;;4.50;99.90;;;;;;5151260;27;20506;-75
2022/01/21 17:58:43;;;;;;;9.43;9.00;;;4.50;99.90;;;;;;5151253;27;20821;-74
